Time;durP1;ratioP1;P1;durP2;ratioP2;P2;SDS_P1;SDS_P2;PMS_P1;PMS_P2;Temp;Humidity;BMP_temperature;BMP_pressure;BME280_temperature;BME280_humidity;BME280_pressure;Samples;Min_cycle;Max_cycle;Signal;HPM_P1;HPM_P2
2023/10/26 00:01:32;;;;;;;18.58;11.68;;;17.40;97.60;;;;;;4917144;29;20465;-81
2023/10/26 00:03:59;;;;;;;19.25;10.43;;;17.40;97.60;;;;;;4915104;29;20171;-81
2023/10/26 00:06:25;;;;;;;15.43;10.57;;;17.40;97.60;;;;;;4900038;29;20549;-81
2023/10/26 00:08:50;;;;;;;14.85;10.90;;;17.40;97.50;;;;;;4899838;29;20030;-82
2023/10/26 00:11:16;;;;;;;16.23;10.18;;;17.40;97.50;;;;;;4917272;29;20060;-81
2023/10/26 00:13:42;;;;;;;16.15;10.63;;;17.40;97.60;;;;;;4899242;29;20484;-81
2023/10/26 00:16:07;;;;;;;14.98;10.32;;;17.50;97.50;;;;;;4917932;29;20096;-86
2023/10/26 00:18:33;;;;;;;17.60;10.80;;;17.50;97.50;;;;;;4917113;29;20072;-86
2023/10/26 00:21:00;;;;;;;15.13;9.40;;;17.50;97.60;;;;;;4917555;29;20035;-87
2023/10/26 00:23:26;;;;;;;15.40;10.07;;;17.50;97.60;;;;;;4917499;29;20028;-87
2023/10/26 00:25:52;;;;;;;14.98;10.15;;;17.50;97.50;;;;;;4915129;29;20111;-86
2023/10/26 00:28:18;;;;;;;14.50;9.75;;;17.50;97.50;;;;;;4914221;29;20519;-87
2023/10/26 00:30:43;;;;;;;15.10;10.48;;;17.40;97.50;;;;;;4917256;29;20032;-88
2023/10/26 00:33:09;;;;;;;15.23;10.30;;;17.40;97.60;;;;;;4911419;29;20028;-87
2023/10/26 00:35:35;;;;;;;16.13;9.98;;;17.40;97.60;;;;;;4916889;29;20549;-87
2023/10/26 00:38:01;;;;;;;14.68;9.82;;;17.40;97.60;;;;;;4917190;29;20024;-86
2023/10/26 00:40:27;;;;;;;17.98;9.93;;;17.40;97.50;;;;;;4917403;29;20595;-87
2023/10/26 00:43:04;;;;;;;18.88;10.82;;;17.30;97.60;;;;;;4900155;29;20028;-86
2023/10/26 00:45:35;;;;;;;15.05;9.95;;;17.30;97.60;;;;;;4917263;29;20373;-86
2023/10/26 00:48:01;;;;;;;15.77;10.38;;;17.20;97.60;;;;;;4901652;29;20028;-87
2023/10/26 00:50:28;;;;;;;14.43;8.75;;;17.20;97.70;;;;;;4900282;29;20412;-88
2023/10/26 00:52:55;;;;;;;17.85;10.82;;;17.10;97.80;;;;;;4917672;29;20035;-87
2023/10/26 00:55:21;;;;;;;16.33;10.32;;;17.10;97.90;;;;;;4911821;29;20039;-88
2023/10/26 00:57:47;;;;;;;15.07;10.27;;;17.10;97.90;;;;;;4916562;29;20031;-87
2023/10/26 01:00:13;;;;;;;14.63;9.60;;;17.10;98.00;;;;;;4917344;29;20388;-87
2023/10/26 01:02:39;;;;;;;15.40;10.68;;;17.20;98.00;;;;;;4917169;29;20381;-86
2023/10/26 01:05:06;;;;;;;17.67;10.70;;;17.20;97.90;;;;;;4900244;29;20043;-86
2023/10/26 01:07:32;;;;;;;14.45;9.95;;;17.20;97.90;;;;;;4897981;29;20108;-86
2023/10/26 01:09:58;;;;;;;19.80;12.15;;;17.10;97.90;;;;;;4910842;29;20128;-86
2023/10/26 01:12:25;;;;;;;11.57;8.98;;;17.10;97.90;;;;;;4899873;29;20036;-86
2023/10/26 01:14:52;;;;;;;13.13;9.32;;;17.00;98.00;;;;;;4918078;29;20122;-87
2023/10/26 01:17:17;;;;;;;15.80;9.20;;;17.00;98.00;;;;;;4914372;29;20487;-86
2023/10/26 01:19:46;;;;;;;15.13;10.32;;;17.00;98.10;;;;;;4918965;29;20047;-86
2023/10/26 01:22:12;;;;;;;13.85;9.77;;;17.00;98.00;;;;;;4899838;29;20446;-86
2023/10/26 01:24:38;;;;;;;15.82;9.98;;;17.00;98.10;;;;;;4918529;29;20058;-89
2023/10/26 01:27:04;;;;;;;16.80;10.20;;;17.00;98.10;;;;;;4921123;29;20104;-86
2023/10/26 01:29:31;;;;;;;11.90;8.52;;;17.00;98.10;;;;;;4903755;29;20068;-87
2023/10/26 01:31:57;;;;;;;13.43;9.13;;;17.00;98.10;;;;;;4901225;29;20054;-86
2023/10/26 01:34:23;;;;;;;16.80;11.05;;;16.90;98.10;;;;;;4917634;29;20048;-88
2023/10/26 01:36:49;;;;;;;13.35;9.82;;;16.90;98.20;;;;;;4894494;29;20477;-88
2023/10/26 01:39:16;;;;;;;14.50;9.45;;;16.90;98.20;;;;;;4916953;29;20375;-88
2023/10/26 01:41:42;;;;;;;16.02;9.43;;;17.00;98.20;;;;;;4906288;29;20035;-88
2023/10/26 01:44:08;;;;;;;14.27;8.93;;;17.00;98.20;;;;;;4920464;29;20111;-89
2023/10/26 01:46:34;;;;;;;14.30;8.75;;;17.00;98.10;;;;;;4917937;29;20370;-86
2023/10/26 01:49:01;;;;;;;13.68;8.77;;;17.00;98.10;;;;;;4920115;29;20383;-87
2023/10/26 01:51:27;;;;;;;14.48;9.57;;;17.00;98.10;;;;;;4914679;29;20020;-88
2023/10/26 01:53:53;;;;;;;23.55;9.50;;;17.10;98.10;;;;;;4914068;29;20529;-87
2023/10/26 01:56:18;;;;;;;13.38;9.18;;;17.10;98.00;;;;;;4920041;29;20035;-87
2023/10/26 01:58:45;;;;;;;13.75;9.45;;;17.10;97.90;;;;;;4919804;29;20036;-87
2023/10/26 02:01:11;;;;;;;15.38;9.63;;;17.20;97.90;;;;;;4902827;29;20028;-87
2023/10/26 02:03:37;;;;;;;13.32;9.02;;;17.20;97.80;;;;;;4902767;29;20043;-86
2023/10/26 02:06:06;;;;;;;13.77;9.30;;;17.20;97.70;;;;;;4919657;29;20020;-86
2023/10/26 02:08:33;;;;;;;15.32;9.70;;;17.20;97.60;;;;;;4919795;29;20024;-86
2023/10/26 02:10:58;;;;;;;14.05;9.20;;;17.20;97.50;;;;;;4911815;29;20032;-85
2023/10/26 02:13:24;;;;;;;12.55;8.25;;;17.20;97.50;;;;;;4906754;29;20448;-86
2023/10/26 02:15:50;;;;;;;19.83;9.60;;;17.10;97.50;;;;;;4918057;29;20024;-86
2023/10/26 02:18:15;;;;;;;13.88;9.40;;;17.10;97.80;;;;;;4919211;29;20052;-86
2023/10/26 02:20:41;;;;;;;13.23;8.70;;;17.10;97.60;;;;;;4916238;29;20473;-86
2023/10/26 02:23:07;;;;;;;12.18;8.50;;;17.10;97.60;;;;;;4919028;29;20110;-86
2023/10/26 02:25:33;;;;;;;11.90;8.23;;;17.10;97.50;;;;;;4919425;29;20044;-86
2023/10/26 02:27:58;;;;;;;12.40;8.23;;;17.20;97.50;;;;;;4912496;29;20123;-86
2023/10/26 02:30:24;;;;;;;14.43;8.13;;;17.20;97.50;;;;;;4902317;29;20385;-87
2023/10/26 02:32:50;;;;;;;14.10;8.80;;;17.20;97.50;;;;;;4902682;29;20499;-86
2023/10/26 02:35:16;;;;;;;14.10;8.57;;;17.20;97.40;;;;;;4919195;29;20032;-86
2023/10/26 02:37:42;;;;;;;10.80;7.85;;;17.20;97.40;;;;;;4918956;29;20036;-87
2023/10/26 02:40:09;;;;;;;12.18;7.88;;;17.20;97.40;;;;;;4919137;29;20033;-87
2023/10/26 02:42:35;;;;;;;16.20;9.32;;;17.20;97.40;;;;;;4913818;29;20057;-87
2023/10/26 02:45:03;;;;;;;12.93;7.38;;;17.20;97.40;;;;;;4919544;29;20028;-87
2023/10/26 02:47:29;;;;;;;14.40;8.88;;;17.10;97.40;;;;;;4911218;29;20103;-87
2023/10/26 02:49:55;;;;;;;13.05;9.00;;;17.10;97.40;;;;;;4914087;29;20028;-87
2023/10/26 02:52:20;;;;;;;13.25;8.95;;;17.10;97.50;;;;;;4919040;29;20047;-87
2023/10/26 02:54:46;;;;;;;11.70;8.73;;;17.10;97.50;;;;;;4914088;29;20103;-86
2023/10/26 02:57:14;;;;;;;15.27;9.60;;;17.10;97.40;;;;;;4917922;29;20389;-86
2023/10/26 02:59:40;;;;;;;14.95;8.68;;;17.10;97.40;;;;;;4913964;29;20032;-86
2023/10/26 03:02:06;;;;;;;15.10;9.00;;;17.20;97.40;;;;;;4914518;29;20110;-86
2023/10/26 03:04:34;;;;;;;12.00;8.48;;;17.20;97.40;;;;;;4917223;29;20039;-86
2023/10/26 03:07:00;;;;;;;11.93;8.32;;;17.20;97.40;;;;;;4901079;29;20037;-86
2023/10/26 03:09:26;;;;;;;11.43;7.53;;;17.20;97.40;;;;;;4913792;29;20035;-86
2023/10/26 03:11:52;;;;;;;15.68;8.70;;;17.20;97.60;;;;;;4917940;29;20024;-85
2023/10/26 03:14:19;;;;;;;15.15;8.32;;;17.20;97.30;;;;;;4918244;29;20028;-86
2023/10/26 03:16:45;;;;;;;10.98;7.13;;;17.30;97.20;;;;;;4918147;29;20044;-85
2023/10/26 03:19:11;;;;;;;12.07;8.25;;;17.30;97.20;;;;;;4918245;29;20539;-86
2023/10/26 03:21:36;;;;;;;12.77;7.93;;;17.30;97.20;;;;;;4918193;29;20039;-86
2023/10/26 03:24:02;;;;;;;12.90;8.27;;;17.30;97.20;;;;;;4906847;29;20100;-85
2023/10/26 03:26:28;;;;;;;10.82;6.80;;;17.30;97.30;;;;;;4918586;29;20021;-87
2023/10/26 03:28:54;;;;;;;13.27;7.57;;;17.30;97.40;;;;;;4918491;29;20127;-88
2023/10/26 03:31:20;;;;;;;11.80;6.68;;;17.30;97.40;;;;;;4916444;29;20031;-87
2023/10/26 03:33:46;;;;;;;13.73;7.97;;;17.30;97.40;;;;;;4918482;29;20028;-87
2023/10/26 03:36:15;;;;;;;10.15;7.10;;;17.30;97.30;;;;;;4915903;29;20056;-86
2023/10/26 03:38:41;;;;;;;10.63;7.03;;;17.20;97.30;;;;;;4916360;29;20044;-85
2023/10/26 03:41:08;;;;;;;14.73;9.88;;;17.20;97.40;;;;;;4911395;29;20028;-85
2023/10/26 03:43:34;;;;;;;11.57;7.25;;;17.10;97.40;;;;;;4918198;29;20032;-86
2023/10/26 03:45:59;;;;;;;11.55;7.65;;;17.10;97.40;;;;;;4917527;29;20519;-86
2023/10/26 03:48:25;;;;;;;13.35;8.32;;;17.10;97.50;;;;;;4917942;29;20103;-86
2023/10/26 03:50:51;;;;;;;10.82;7.63;;;17.10;97.50;;;;;;4918243;29;20498;-87
2023/10/26 03:53:16;;;;;;;13.55;8.63;;;17.00;97.50;;;;;;4917780;29;20087;-87
2023/10/26 03:55:42;;;;;;;10.80;7.28;;;17.00;97.60;;;;;;4917877;29;20028;-87
2023/10/26 03:58:08;;;;;;;12.05;7.90;;;17.00;97.70;;;;;;4900884;29;20050;-86
2023/10/26 04:00:33;;;;;;;10.70;7.43;;;16.90;97.70;;;;;;4917577;29;20079;-86
2023/10/26 04:02:59;;;;;;;10.25;7.22;;;16.90;97.60;;;;;;4917663;29;20108;-86
2023/10/26 04:05:25;;;;;;;14.05;8.35;;;16.90;97.70;;;;;;4917817;29;20381;-86
2023/10/26 04:07:50;;;;;;;12.10;7.85;;;16.90;97.70;;;;;;4917224;29;20637;-86
2023/10/26 04:10:17;;;;;;;12.68;8.43;;;16.90;97.80;;;;;;4917245;29;20055;-85
2023/10/26 04:12:43;;;;;;;11.52;8.05;;;16.90;97.80;;;;;;4916708;29;20066;-86
2023/10/26 04:15:09;;;;;;;14.95;8.20;;;16.90;97.70;;;;;;4900476;29;20143;-86
2023/10/26 04:17:35;;;;;;;13.43;8.93;;;16.90;97.80;;;;;;4916586;29;20532;-86
2023/10/26 04:20:01;;;;;;;11.10;7.80;;;16.90;97.80;;;;;;4917585;29;20036;-87
2023/10/26 04:22:27;;;;;;;12.55;8.75;;;16.90;97.80;;;;;;4916937;29;20095;-86
2023/10/26 04:24:53;;;;;;;14.52;7.60;;;16.90;97.80;;;;;;4917110;29;20122;-88
2023/10/26 04:27:20;;;;;;;12.63;8.13;;;16.90;97.80;;;;;;4918196;29;20028;-88
2023/10/26 04:29:45;;;;;;;13.00;8.82;;;16.90;97.80;;;;;;4909277;29;20033;-79
2023/10/26 04:32:11;;;;;;;17.23;8.48;;;16.90;97.90;;;;;;4893030;29;20040;-79
2023/10/26 04:34:43;;;;;;;12.73;8.55;;;16.80;97.90;;;;;;4899089;29;20031;-79
2023/10/26 04:37:09;;;;;;;11.63;7.70;;;16.80;97.90;;;;;;4915178;29;20024;-79
2023/10/26 04:39:35;;;;;;;12.57;8.02;;;16.80;97.90;;;;;;4899424;29;20031;-79
2023/10/26 04:42:01;;;;;;;13.05;7.63;;;16.80;97.90;;;;;;4913083;29;20028;-78
2023/10/26 04:44:26;;;;;;;13.25;7.82;;;16.70;97.90;;;;;;4915347;29;20471;-78
2023/10/26 04:46:52;;;;;;;12.20;8.10;;;16.80;97.90;;;;;;4918051;29;20095;-79
2023/10/26 04:49:18;;;;;;;13.15;8.45;;;16.70;97.90;;;;;;4896573;29;20050;-80
2023/10/26 04:51:43;;;;;;;13.25;7.88;;;16.70;97.90;;;;;;4918099;29;20037;-80
2023/10/26 04:54:09;;;;;;;13.05;8.25;;;16.70;98.00;;;;;;4901281;29;20532;-80
2023/10/26 04:56:35;;;;;;;14.88;8.60;;;16.70;98.00;;;;;;4908200;29;20095;-82
2023/10/26 04:59:01;;;;;;;10.68;7.85;;;16.70;98.00;;;;;;4920273;29;20059;-88
2023/10/26 05:01:27;;;;;;;14.15;8.25;;;16.70;97.90;;;;;;4892046;29;20037;-80
2023/10/26 05:03:53;;;;;;;14.73;8.82;;;16.70;97.80;;;;;;4916104;29;20095;-79
2023/10/26 05:06:19;;;;;;;13.75;9.45;;;16.70;97.80;;;;;;4897669;29;20035;-79
2023/10/26 05:08:46;;;;;;;15.43;8.55;;;16.60;97.80;;;;;;4898004;29;20040;-80
2023/10/26 05:11:12;;;;;;;20.02;8.85;;;16.60;97.90;;;;;;4912338;29;20028;-80
2023/10/26 05:13:40;;;;;;;14.05;8.43;;;16.60;97.90;;;;;;4917790;29;20082;-79
2023/10/26 05:16:05;;;;;;;12.20;7.95;;;16.60;97.80;;;;;;4899994;29;20047;-78
2023/10/26 05:18:32;;;;;;;12.20;8.73;;;16.60;97.80;;;;;;4911917;29;20052;-79
2023/10/26 05:20:59;;;;;;;11.38;8.00;;;16.50;97.90;;;;;;4913941;29;20035;-82
2023/10/26 05:23:25;;;;;;;15.73;8.90;;;16.50;98.00;;;;;;4917552;29;20039;-82
2023/10/26 05:25:51;;;;;;;13.40;8.70;;;16.50;98.00;;;;;;4916591;29;20495;-82
2023/10/26 05:28:17;;;;;;;14.05;8.00;;;16.50;97.90;;;;;;4919959;29;20052;-83
2023/10/26 05:30:43;;;;;;;12.02;7.75;;;16.50;97.90;;;;;;4915610;29;20024;-82
2023/10/26 05:33:08;;;;;;;15.95;9.20;;;16.50;97.90;;;;;;4909692;29;20043;-83
2023/10/26 05:35:34;;;;;;;13.35;7.82;;;16.50;97.90;;;;;;4916208;29;20032;-82
2023/10/26 05:38:00;;;;;;;16.90;9.20;;;16.40;97.90;;;;;;4913629;29;20086;-83
2023/10/26 05:40:26;;;;;;;16.80;9.30;;;16.40;97.90;;;;;;4918981;29;20032;-82
2023/10/26 05:42:52;;;;;;;14.05;8.88;;;16.40;97.90;;;;;;4918442;29;20044;-82
2023/10/26 05:45:17;;;;;;;12.63;8.77;;;16.40;97.90;;;;;;4915332;29;20036;-82
2023/10/26 05:47:43;;;;;;;14.25;9.68;;;16.40;97.90;;;;;;4919981;29;20032;-83
2023/10/26 05:50:10;;;;;;;14.70;8.75;;;16.40;97.80;;;;;;4915528;29;20106;-83
2023/10/26 05:52:36;;;;;;;16.75;9.10;;;16.40;97.80;;;;;;4915752;29;20396;-83
2023/10/26 05:55:02;;;;;;;15.35;8.50;;;16.40;97.80;;;;;;4918930;29;20052;-82
2023/10/26 05:57:28;;;;;;;15.75;8.60;;;16.40;97.90;;;;;;4918466;29;20115;-81
2023/10/26 05:59:54;;;;;;;15.68;9.02;;;16.40;97.80;;;;;;4902043;29;20488;-82
2023/10/26 06:02:19;;;;;;;17.58;8.48;;;16.40;97.90;;;;;;4906744;29;21982;-81
2023/10/26 06:04:45;;;;;;;14.57;8.90;;;16.40;97.90;;;;;;4911110;29;20410;-81
2023/10/26 06:07:11;;;;;;;12.85;7.78;;;16.40;97.90;;;;;;4913935;29;20422;-83
2023/10/26 06:09:36;;;;;;;14.82;9.35;;;16.40;97.90;;;;;;4911798;29;20100;-82
2023/10/26 06:12:02;;;;;;;16.27;8.45;;;16.40;97.80;;;;;;4919037;29;20047;-82
2023/10/26 06:14:28;;;;;;;12.82;8.15;;;16.40;97.80;;;;;;4916787;29;20034;-82
2023/10/26 06:16:53;;;;;;;13.77;8.63;;;16.30;97.80;;;;;;4919257;29;20056;-82
2023/10/26 06:19:19;;;;;;;14.32;8.25;;;16.30;97.90;;;;;;4919166;29;20095;-82
2023/10/26 06:21:45;;;;;;;14.85;8.55;;;16.30;97.80;;;;;;4912202;29;20032;-82
2023/10/26 06:24:10;;;;;;;13.80;9.05;;;16.30;97.90;;;;;;4918307;29;20492;-82
2023/10/26 06:26:36;;;;;;;16.27;9.18;;;16.30;97.90;;;;;;4907426;29;20051;-82
2023/10/26 06:29:02;;;;;;;14.10;8.80;;;16.30;97.80;;;;;;4901287;29;20433;-83
2023/10/26 06:31:28;;;;;;;16.08;10.07;;;16.30;97.90;;;;;;4912849;29;20511;-82
2023/10/26 06:33:53;;;;;;;12.63;8.63;;;16.30;97.90;;;;;;4918874;29;20032;-83
2023/10/26 06:36:19;;;;;;;14.68;8.80;;;16.30;97.90;;;;;;4901069;29;20405;-83
2023/10/26 06:38:44;;;;;;;15.07;8.73;;;16.40;97.90;;;;;;4910493;29;20040;-83
2023/10/26 06:41:10;;;;;;;13.32;8.25;;;16.40;97.80;;;;;;4909383;29;20068;-82
2023/10/26 06:43:37;;;;;;;13.15;8.50;;;16.40;97.70;;;;;;4918411;29;20461;-82
2023/10/26 06:46:03;;;;;;;14.38;8.90;;;16.40;97.70;;;;;;4914650;29;20537;-82
2023/10/26 06:48:29;;;;;;;11.95;8.00;;;16.50;97.80;;;;;;4917701;29;20055;-82
2023/10/26 06:51:02;;;;;;;14.85;8.85;;;16.60;97.80;;;;;;4900712;29;20036;-82
2023/10/26 06:53:29;;;;;;;13.25;7.55;;;16.60;97.70;;;;;;4914658;29;20401;-84
2023/10/26 06:55:55;;;;;;;13.77;8.15;;;16.60;97.70;;;;;;4917014;29;20126;-83
2023/10/26 06:58:21;;;;;;;11.77;7.90;;;16.70;97.70;;;;;;4894136;29;20048;-82
2023/10/26 07:00:47;;;;;;;14.60;8.23;;;16.70;97.60;;;;;;4914982;29;20040;-83
2023/10/26 07:03:13;;;;;;;12.88;8.07;;;16.80;97.50;;;;;;4911760;29;20063;-82
2023/10/26 07:05:40;;;;;;;12.30;8.07;;;16.80;97.50;;;;;;4917530;29;20036;-82
2023/10/26 07:08:06;;;;;;;11.40;8.02;;;16.80;97.40;;;;;;4909985;29;20033;-83
2023/10/26 07:10:31;;;;;;;16.75;8.07;;;16.80;97.40;;;;;;4910732;29;20032;-82
2023/10/26 07:12:57;;;;;;;13.25;8.27;;;16.90;97.40;;;;;;4899758;29;20446;-82
2023/10/26 07:15:23;;;;;;;10.48;7.68;;;17.00;97.40;;;;;;4908232;29;20084;-82
2023/10/26 07:17:49;;;;;;;13.65;7.88;;;17.00;97.40;;;;;;4903817;29;20129;-82
2023/10/26 07:20:15;;;;;;;14.38;8.73;;;17.00;97.40;;;;;;4899486;29;20044;-82
2023/10/26 07:22:42;;;;;;;15.57;9.25;;;17.10;97.40;;;;;;4911286;29;20436;-82
2023/10/26 07:25:08;;;;;;;13.43;8.45;;;17.10;97.40;;;;;;4917265;29;20524;-82
2023/10/26 07:27:34;;;;;;;11.50;7.65;;;17.10;97.40;;;;;;4917587;29;20020;-83
2023/10/26 07:30:00;;;;;;;19.05;8.93;;;17.20;97.40;;;;;;4900768;29;20485;-82
2023/10/26 07:32:25;;;;;;;11.27;7.65;;;17.20;97.40;;;;;;4904429;29;20032;-84
2023/10/26 07:34:52;;;;;;;12.90;8.30;;;17.20;97.30;;;;;;4899822;29;20032;-83
2023/10/26 07:37:18;;;;;;;12.32;8.68;;;17.30;97.40;;;;;;4937092;29;20039;-83
2023/10/26 07:39:44;;;;;;;12.57;7.82;;;17.30;97.30;;;;;;4949796;23;20068;-88
2023/10/26 07:42:10;;;;;;;14.35;7.95;;;17.30;97.20;;;;;;4897675;29;20039;-88
2023/10/26 07:44:37;;;;;;;12.38;7.53;;;17.30;97.30;;;;;;4918359;29;20474;-89
2023/10/26 07:47:04;;;;;;;13.07;7.75;;;17.40;97.30;;;;;;4900970;29;20504;-89
2023/10/26 07:49:30;;;;;;;12.05;7.75;;;17.40;97.30;;;;;;4916934;29;20472;-87
2023/10/26 07:51:55;;;;;;;11.38;7.65;;;17.50;97.30;;;;;;4918282;29;20030;-88
2023/10/26 07:54:21;;;;;;;12.82;7.50;;;17.50;97.20;;;;;;4918507;29;20111;-89
2023/10/26 07:56:47;;;;;;;10.88;7.38;;;17.60;97.10;;;;;;4900233;29;20040;-83
2023/10/26 07:59:13;;;;;;;11.70;7.63;;;17.70;97.00;;;;;;4916038;29;20028;-82
2023/10/26 08:01:38;;;;;;;13.00;7.68;;;17.70;97.00;;;;;;4901577;29;20040;-83
2023/10/26 08:04:05;;;;;;;9.95;6.75;;;17.80;97.00;;;;;;4908886;29;20487;-82
2023/10/26 08:06:30;;;;;;;11.93;7.00;;;17.90;96.80;;;;;;4904048;29;20067;-82
2023/10/26 08:08:58;;;;;;;13.23;6.70;;;17.90;96.80;;;;;;4903845;29;20063;-83
2023/10/26 08:11:24;;;;;;;10.52;7.20;;;17.90;96.50;;;;;;4912073;29;20024;-83
2023/10/26 08:13:50;;;;;;;13.68;7.40;;;17.90;96.70;;;;;;4915637;29;20173;-83
2023/10/26 08:16:16;;;;;;;10.52;6.60;;;18.00;96.70;;;;;;4914593;29;20111;-83
2023/10/26 08:18:42;;;;;;;9.70;6.97;;;18.00;96.50;;;;;;4898082;29;20115;-82
2023/10/26 08:21:08;;;;;;;9.82;6.20;;;18.10;96.40;;;;;;4898534;29;20393;-88
2023/10/26 08:23:34;;;;;;;8.93;5.95;;;18.20;96.50;;;;;;4898512;29;20095;-87
2023/10/26 08:26:07;;;;;;;12.50;6.63;;;18.20;96.40;;;;;;4898650;29;20064;-87
2023/10/26 08:28:33;;;;;;;10.82;6.30;;;18.30;96.30;;;;;;4898858;29;20039;-87
2023/10/26 08:31:01;;;;;;;10.65;6.95;;;18.30;96.00;;;;;;4898818;29;20033;-88
2023/10/26 08:33:30;;;;;;;9.65;6.00;;;18.40;96.00;;;;;;4882258;29;20032;-88
2023/10/26 08:35:57;;;;;;;10.35;5.63;;;18.50;96.10;;;;;;4898918;29;20130;-87
2023/10/26 08:38:23;;;;;;;8.60;5.40;;;18.50;96.00;;;;;;4898845;29;20036;-88
2023/10/26 08:40:54;;;;;;;8.57;5.47;;;18.60;95.60;;;;;;4899108;29;20057;-87
2023/10/26 08:43:21;;;;;;;8.30;5.00;;;18.70;95.60;;;;;;4898748;29;20055;-88
2023/10/26 08:45:48;;;;;;;15.80;5.65;;;18.70;95.40;;;;;;4898880;29;20032;-88
2023/10/26 08:48:18;;;;;;;11.23;5.88;;;18.70;95.70;;;;;;4881573;29;20389;-87
2023/10/26 08:50:47;;;;;;;;;;;18.70;95.60;;;;;;4882184;29;20025;-88
2023/10/26 08:53:14;;;;;;;6.60;4.53;;;18.80;95.30;;;;;;4898720;29;19908;-88
2023/10/26 08:55:41;;;;;;;10.90;4.85;;;18.80;95.20;;;;;;4898188;29;20036;-88
2023/10/26 08:58:08;;;;;;;8.27;4.75;;;18.80;95.10;;;;;;4898561;29;20031;-88
2023/10/26 09:00:36;;;;;;;7.25;4.28;;;18.90;94.90;;;;;;4898585;29;20084;-87
2023/10/26 09:03:02;;;;;;;6.85;4.78;;;18.90;95.20;;;;;;4881386;29;20024;-87
2023/10/26 09:05:27;;;;;;;8.07;4.10;;;19.00;95.10;;;;;;4898582;29;20423;-88
2023/10/26 09:07:53;;;;;;;11.68;5.25;;;19.00;95.10;;;;;;4881322;29;20021;-88
2023/10/26 09:10:30;;;;;;;7.68;5.03;;;19.10;94.90;;;;;;4881658;29;20032;-87
2023/10/26 09:13:00;;;;;;;9.73;4.50;;;19.10;94.50;;;;;;4898370;29;20036;-88
2023/10/26 09:15:28;;;;;;;6.63;4.30;;;19.10;94.70;;;;;;4898439;29;20039;-88
2023/10/26 09:17:57;;;;;;;10.63;4.43;;;19.20;94.80;;;;;;4898521;29;20473;-87
2023/10/26 09:20:24;;;;;;;8.77;5.28;;;19.20;94.70;;;;;;4897783;29;20033;-82
2023/10/26 09:22:50;;;;;;;9.80;5.35;;;19.20;94.90;;;;;;4897783;29;20108;-82
2023/10/26 09:25:16;;;;;;;8.60;5.40;;;19.30;94.90;;;;;;4897903;29;20064;-82
2023/10/26 09:27:44;;;;;;;8.13;4.72;;;19.30;94.80;;;;;;4897910;29;20475;-82
2023/10/26 09:30:29;;;;;;;8.77;5.10;;;19.50;94.60;;;;;;4880735;29;20032;-83
2023/10/26 09:32:59;;;;;;;11.25;5.55;;;19.50;94.30;;;;;;4898008;29;20096;-82
2023/10/26 09:35:32;;;;;;;7.15;4.55;;;19.50;94.50;;;;;;4881048;29;20032;-82
2023/10/26 09:37:58;;;;;;;6.90;3.97;;;19.60;94.30;;;;;;4901203;29;20036;-82
2023/10/26 09:40:26;;;;;;;11.52;5.68;;;19.60;94.30;;;;;;4905100;29;20090;-82
2023/10/26 09:42:55;;;;;;;7.85;4.80;;;19.70;94.30;;;;;;4902981;29;20036;-82
2023/10/26 09:45:21;;;;;;;6.80;3.40;;;19.70;93.80;;;;;;4920334;29;20162;-82
2023/10/26 09:47:47;;;;;;;10.00;4.15;;;19.70;93.50;;;;;;4920100;29;20271;-82
2023/10/26 09:50:14;;;;;;;6.90;3.83;;;19.70;93.40;;;;;;4919535;29;20035;-82
2023/10/26 09:52:43;;;;;;;8.95;3.78;;;19.60;93.40;;;;;;4906030;29;20084;-82
2023/10/26 09:55:10;;;;;;;7.18;3.30;;;19.70;93.40;;;;;;4905659;29;20039;-83
2023/10/26 09:57:52;;;;;;;5.57;3.85;;;19.80;93.70;;;;;;4919900;29;20033;-82
2023/10/26 10:00:19;;;;;;;6.22;3.55;;;20.00;93.60;;;;;;4894062;29;20111;-83
2023/10/26 10:03:12;;;;;;;6.80;4.25;;;20.20;93.40;;;;;;4900619;29;20036;-82
2023/10/26 10:05:39;;;;;;;7.07;4.13;;;20.30;92.70;;;;;;4900444;29;20028;-82
2023/10/26 10:08:06;;;;;;;6.85;4.43;;;20.30;92.60;;;;;;4900690;29;20029;-88
2023/10/26 10:10:33;;;;;;;6.32;4.05;;;20.30;92.80;;;;;;4901171;29;20025;-89
2023/10/26 10:12:59;;;;;;;9.15;4.57;;;20.30;92.90;;;;;;4900986;29;20025;-88
2023/10/26 10:15:38;;;;;;;6.78;4.38;;;20.30;93.10;;;;;;4900806;29;20039;-88
2023/10/26 10:18:06;;;;;;;8.23;4.90;;;20.40;92.90;;;;;;4900828;29;20513;-88
2023/10/26 10:20:36;;;;;;;8.57;5.20;;;20.40;92.80;;;;;;4901482;29;20276;-88
2023/10/26 10:23:03;;;;;;;8.65;5.18;;;20.40;92.90;;;;;;4900951;29;20028;-86
2023/10/26 10:25:50;;;;;;;10.60;5.95;;;20.40;93.00;;;;;;4901380;29;20028;-89
2023/10/26 10:28:17;;;;;;;8.90;4.93;;;20.40;93.10;;;;;;4911168;29;20492;-88
2023/10/26 10:30:56;;;;;;;8.07;5.13;;;20.40;93.10;;;;;;4909461;29;20035;-88
2023/10/26 10:33:26;;;;;;;9.23;4.88;;;20.40;93.10;;;;;;4891817;29;20032;-88
2023/10/26 10:36:02;;;;;;;8.93;5.45;;;20.40;93.00;;;;;;4905158;29;20037;-88
2023/10/26 10:38:28;;;;;;;12.90;5.82;;;20.40;93.10;;;;;;4900408;29;20025;-88
2023/10/26 10:40:54;;;;;;;12.70;5.50;;;20.50;92.90;;;;;;4905322;29;20059;-88
2023/10/26 10:43:40;;;;;;;10.18;5.05;;;20.50;92.70;;;;;;4919723;29;20040;-88
2023/10/26 10:46:29;;;;;;;11.00;4.70;;;20.50;92.90;;;;;;4919633;29;20028;-88
2023/10/26 10:49:06;;;;;;;9.55;5.50;;;20.60;92.90;;;;;;4919881;29;20035;-88
2023/10/26 10:51:35;;;;;;;8.82;5.53;;;20.60;92.70;;;;;;4919278;29;20028;-88
2023/10/26 10:54:03;;;;;;;10.40;5.85;;;20.60;92.60;;;;;;4914825;29;20020;-88
2023/10/26 10:56:35;;;;;;;12.52;5.25;;;20.60;92.40;;;;;;4905726;29;20033;-88
2023/10/26 10:59:01;;;;;;;11.27;5.53;;;20.60;92.60;;;;;;4896045;29;20055;-89
2023/10/26 11:01:27;;;;;;;10.80;5.40;;;20.50;92.60;;;;;;4916535;29;20032;-85
2023/10/26 11:04:03;;;;;;;9.27;5.38;;;20.50;92.80;;;;;;4882635;29;20071;-86
2023/10/26 11:06:28;;;;;;;9.50;5.53;;;20.60;92.80;;;;;;4884128;29;20047;-87
2023/10/26 11:08:54;;;;;;;12.98;6.00;;;20.60;92.80;;;;;;4914277;29;20461;-87
2023/10/26 11:11:27;;;;;;;12.95;6.10;;;20.60;92.90;;;;;;4909537;29;20060;-80
2023/10/26 11:14:09;;;;;;;10.05;5.22;;;20.60;92.30;;;;;;4883478;29;20036;-87
2023/10/26 11:16:38;;;;;;;12.00;6.20;;;20.50;92.70;;;;;;4900779;29;20026;-81
2023/10/26 11:19:04;;;;;;;15.10;5.80;;;20.50;92.80;;;;;;4902048;29;20064;-81
2023/10/26 11:21:30;;;;;;;11.27;5.25;;;20.40;92.90;;;;;;4905535;29;20028;-81
2023/10/26 11:23:56;;;;;;;11.68;5.65;;;20.40;92.90;;;;;;4896730;29;20346;-81
2023/10/26 11:26:21;;;;;;;9.32;6.50;;;20.40;93.00;;;;;;4900956;29;20027;-81
2023/10/26 11:28:47;;;;;;;13.30;5.72;;;20.50;93.00;;;;;;4892233;29;20035;-81
2023/10/26 11:31:13;;;;;;;11.55;5.85;;;20.50;93.00;;;;;;4899898;29;20028;-82
2023/10/26 11:33:39;;;;;;;14.75;7.72;;;20.60;92.90;;;;;;4900457;29;20033;-81
2023/10/26 11:36:13;;;;;;;12.23;6.95;;;20.60;92.70;;;;;;4881954;29;20376;-81
2023/10/26 11:38:47;;;;;;;14.77;6.72;;;20.60;92.50;;;;;;4880531;29;20044;-79
2023/10/26 11:41:22;;;;;;;14.48;7.10;;;20.70;92.40;;;;;;4911312;29;20064;-80
2023/10/26 11:43:48;;;;;;;11.20;7.15;;;20.80;92.40;;;;;;4898699;29;20060;-80
2023/10/26 11:46:14;;;;;;;11.05;6.47;;;20.80;92.50;;;;;;4904066;29;20064;-79
2023/10/26 11:48:41;;;;;;;10.77;6.35;;;21.00;92.30;;;;;;4913407;29;20397;-81
2023/10/26 11:51:07;;;;;;;11.30;6.22;;;21.20;92.40;;;;;;4901010;29;20032;-80
2023/10/26 11:53:34;;;;;;;11.30;6.63;;;21.50;92.20;;;;;;4898650;29;20441;-79
2023/10/26 11:56:00;;;;;;;12.73;6.85;;;21.70;91.80;;;;;;4895513;29;20075;-85
2023/10/26 11:58:26;;;;;;;12.50;7.53;;;21.90;91.60;;;;;;4917647;29;20024;-85
2023/10/26 12:00:51;;;;;;;11.00;6.22;;;22.00;91.30;;;;;;4917784;29;20028;-85
2023/10/26 12:03:17;;;;;;;10.23;6.55;;;22.00;91.20;;;;;;4906872;29;20433;-85
2023/10/26 12:05:43;;;;;;;14.55;6.15;;;21.80;90.90;;;;;;4899073;29;20025;-85
2023/10/26 12:08:09;;;;;;;12.55;6.72;;;21.70;91.30;;;;;;4898612;29;20112;-84
2023/10/26 12:10:34;;;;;;;13.30;6.43;;;21.60;91.50;;;;;;4916425;29;20043;-85
2023/10/26 12:13:01;;;;;;;12.27;6.82;;;21.60;91.70;;;;;;4896126;29;20069;-85
2023/10/26 12:15:27;;;;;;;9.20;5.82;;;21.50;91.60;;;;;;4880217;29;20039;-86
2023/10/26 12:17:53;;;;;;;8.50;5.90;;;21.40;91.70;;;;;;4878803;29;20040;-85
2023/10/26 12:20:19;;;;;;;12.85;7.38;;;21.30;91.80;;;;;;4878663;29;20037;-85
2023/10/26 12:22:45;;;;;;;13.15;6.10;;;21.30;91.80;;;;;;4884591;29;20127;-85
2023/10/26 12:25:11;;;;;;;17.90;7.38;;;21.20;91.80;;;;;;4898471;29;20025;-85
2023/10/26 12:27:38;;;;;;;11.10;6.28;;;21.10;91.90;;;;;;4898228;29;20033;-80
2023/10/26 12:30:04;;;;;;;12.43;6.43;;;21.10;92.10;;;;;;4898425;29;20036;-80
2023/10/26 12:32:33;;;;;;;12.85;7.43;;;21.00;92.20;;;;;;4898565;29;20059;-80
2023/10/26 12:34:58;;;;;;;9.93;6.30;;;20.90;92.20;;;;;;4902018;29;20032;-79
2023/10/26 12:37:24;;;;;;;16.42;6.78;;;20.90;92.20;;;;;;4897632;29;20370;-79